sensor_id;sensor_type;location;lat;lon;timestamp;P1;durP1;ratioP1;P2;durP2;ratioP2
54247;SDS011;40161;39.768;2.722;2022-11-15T00:03:59;8.65;;;2.83;;
54247;SDS011;40161;39.768;2.722;2022-11-15T00:09:47;9.90;;;3.03;;
54247;SDS011;40161;39.768;2.722;2022-11-15T00:15:35;6.35;;;2.58;;
54247;SDS011;40161;39.768;2.722;2022-11-15T00:21:23;8.73;;;3.15;;
54247;SDS011;40161;39.768;2.722;2022-11-15T00:27:10;6.10;;;2.30;;
54247;SDS011;40161;39.768;2.722;2022-11-15T00:33:01;6.78;;;2.83;;
54247;SDS011;40161;39.768;2.722;2022-11-15T00:42:11;5.22;;;2.78;;
54247;SDS011;40161;39.768;2.722;2022-11-15T00:47:58;6.65;;;2.25;;
54247;SDS011;40161;39.768;2.722;2022-11-15T00:53:45;12.00;;;3.45;;
54247;SDS011;40161;39.768;2.722;2022-11-15T00:59:32;5.40;;;2.67;;
54247;SDS011;40161;39.768;2.722;2022-11-15T01:05:19;7.30;;;3.08;;
54247;SDS011;40161;39.768;2.722;2022-11-15T01:30:35;7.35;;;2.50;;
54247;SDS011;40161;39.768;2.722;2022-11-15T01:36:23;6.13;;;2.85;;
54247;SDS011;40161;39.768;2.722;2022-11-15T01:42:13;8.30;;;3.25;;
54247;SDS011;40161;39.768;2.722;2022-11-15T01:48:01;7.88;;;2.80;;
54247;SDS011;40161;39.768;2.722;2022-11-15T01:53:49;9.57;;;3.15;;
54247;SDS011;40161;39.768;2.722;2022-11-15T02:53:11;8.20;;;2.63;;
54247;SDS011;40161;39.768;2.722;2022-11-15T02:55:45;7.38;;;2.47;;
54247;SDS011;40161;39.768;2.722;2022-11-15T03:07:58;5.22;;;2.30;;
54247;SDS011;40161;39.768;2.722;2022-11-15T03:44:35;7.45;;;2.45;;
54247;SDS011;40161;39.768;2.722;2022-11-15T03:50:30;4.95;;;2.28;;
54247;SDS011;40161;39.768;2.722;2022-11-15T03:56:14;5.07;;;2.50;;
54247;SDS011;40161;39.768;2.722;2022-11-15T04:08:46;6.63;;;2.60;;
54247;SDS011;40161;39.768;2.722;2022-11-15T04:11:20;8.25;;;2.75;;
54247;SDS011;40161;39.768;2.722;2022-11-15T04:24:17;6.82;;;2.70;;
54247;SDS011;40161;39.768;2.722;2022-11-15T04:39:18;6.13;;;2.50;;
54247;SDS011;40161;39.768;2.722;2022-11-15T05:03:27;8.50;;;2.85;;
54247;SDS011;40161;39.768;2.722;2022-11-15T05:09:40;6.50;;;2.50;;
54247;SDS011;40161;39.768;2.722;2022-11-15T05:15:24;7.15;;;3.05;;
54247;SDS011;40161;39.768;2.722;2022-11-15T05:18:02;6.57;;;2.90;;
54247;SDS011;40161;39.768;2.722;2022-11-15T05:20:46;8.05;;;2.75;;
54247;SDS011;40161;39.768;2.722;2022-11-15T05:35:40;5.00;;;2.10;;
54247;SDS011;40161;39.768;2.722;2022-11-15T05:41:54;5.90;;;2.58;;
54247;SDS011;40161;39.768;2.722;2022-11-15T05:47:43;7.30;;;2.40;;
54247;SDS011;40161;39.768;2.722;2022-11-15T05:53:44;4.68;;;2.33;;
54247;SDS011;40161;39.768;2.722;2022-11-15T06:02:56;9.85;;;5.07;;
54247;SDS011;40161;39.768;2.722;2022-11-15T06:12:08;7.18;;;2.50;;
54247;SDS011;40161;39.768;2.722;2022-11-15T06:17:56;6.80;;;3.10;;
54247;SDS011;40161;39.768;2.722;2022-11-15T06:27:10;5.93;;;2.55;;
54247;SDS011;40161;39.768;2.722;2022-11-15T06:32:58;5.57;;;2.80;;
54247;SDS011;40161;39.768;2.722;2022-11-15T06:42:08;7.22;;;2.58;;
54247;SDS011;40161;39.768;2.722;2022-11-15T06:47:56;6.75;;;2.60;;
54247;SDS011;40161;39.768;2.722;2022-11-15T06:53:43;9.02;;;2.67;;
54247;SDS011;40161;39.768;2.722;2022-11-15T06:59:30;5.78;;;2.45;;
54247;SDS011;40161;39.768;2.722;2022-11-15T07:05:17;11.80;;;3.25;;
54247;SDS011;40161;39.768;2.722;2022-11-15T07:17:40;10.52;;;4.55;;
54247;SDS011;40161;39.768;2.722;2022-11-15T07:20:23;7.57;;;3.88;;
54247;SDS011;40161;39.768;2.722;2022-11-15T07:26:10;5.53;;;2.20;;
54247;SDS011;40161;39.768;2.722;2022-11-15T07:31:57;7.15;;;2.03;;
54247;SDS011;40161;39.768;2.722;2022-11-15T07:37:50;6.00;;;2.72;;
54247;SDS011;40161;39.768;2.722;2022-11-15T07:47:10;7.45;;;2.75;;
54247;SDS011;40161;39.768;2.722;2022-11-15T07:52:58;9.02;;;4.05;;
54247;SDS011;40161;39.768;2.722;2022-11-15T07:58:46;8.20;;;3.00;;
54247;SDS011;40161;39.768;2.722;2022-11-15T08:04:33;7.20;;;2.50;;
54247;SDS011;40161;39.768;2.722;2022-11-15T08:10:21;6.07;;;2.45;;
54247;SDS011;40161;39.768;2.722;2022-11-15T08:16:08;5.60;;;2.90;;
54247;SDS011;40161;39.768;2.722;2022-11-15T08:35:00;7.90;;;4.32;;
54247;SDS011;40161;39.768;2.722;2022-11-15T08:40:47;7.93;;;4.43;;
54247;SDS011;40161;39.768;2.722;2022-11-15T08:46:34;5.90;;;2.88;;
54247;SDS011;40161;39.768;2.722;2022-11-15T08:52:21;3.55;;;1.60;;
54247;SDS011;40161;39.768;2.722;2022-11-15T08:58:09;7.23;;;1.70;;
54247;SDS011;40161;39.768;2.722;2022-11-15T09:03:56;6.97;;;2.75;;
54247;SDS011;40161;39.768;2.722;2022-11-15T09:16:27;7.78;;;3.42;;
54247;SDS011;40161;39.768;2.722;2022-11-15T09:22:14;7.72;;;3.17;;
54247;SDS011;40161;39.768;2.722;2022-11-15T09:31:22;10.98;;;3.53;;
54247;SDS011;40161;39.768;2.722;2022-11-15T09:40:37;14.73;;;5.97;;
54247;SDS011;40161;39.768;2.722;2022-11-15T09:49:14;15.23;;;6.82;;
54247;SDS011;40161;39.768;2.722;2022-11-15T09:51:47;19.13;;;7.55;;
54247;SDS011;40161;39.768;2.722;2022-11-15T09:54:31;7.85;;;4.72;;
54247;SDS011;40161;39.768;2.722;2022-11-15T10:00:31;6.18;;;3.00;;
54247;SDS011;40161;39.768;2.722;2022-11-15T10:05:45;7.28;;;4.75;;
54247;SDS011;40161;39.768;2.722;2022-11-15T10:11:05;5.90;;;2.35;;
54247;SDS011;40161;39.768;2.722;2022-11-15T10:13:39;4.80;;;1.75;;
54247;SDS011;40161;39.768;2.722;2022-11-15T10:25:29;3.08;;;1.30;;
54247;SDS011;40161;39.768;2.722;2022-11-15T10:28:15;4.88;;;1.40;;
54247;SDS011;40161;39.768;2.722;2022-11-15T10:30:49;3.85;;;1.20;;
54247;SDS011;40161;39.768;2.722;2022-11-15T10:33:38;4.82;;;1.30;;
54247;SDS011;40161;39.768;2.722;2022-11-15T10:36:18;3.53;;;1.00;;
54247;SDS011;40161;39.768;2.722;2022-11-15T10:38:55;3.45;;;1.05;;
54247;SDS011;40161;39.768;2.722;2022-11-15T10:41:35;4.53;;;1.30;;
54247;SDS011;40161;39.768;2.722;2022-11-15T10:49:32;4.20;;;1.20;;
54247;SDS011;40161;39.768;2.722;2022-11-15T10:52:16;5.82;;;1.60;;
54247;SDS011;40161;39.768;2.722;2022-11-15T10:54:48;4.53;;;1.33;;
54247;SDS011;40161;39.768;2.722;2022-11-15T10:57:25;4.18;;;1.10;;
54247;SDS011;40161;39.768;2.722;2022-11-15T10:59:57;3.78;;;2.10;;
54247;SDS011;40161;39.768;2.722;2022-11-15T11:05:47;4.63;;;1.30;;
54247;SDS011;40161;39.768;2.722;2022-11-15T11:08:09;2.97;;;1.17;;
54247;SDS011;40161;39.768;2.722;2022-11-15T11:10:57;3.42;;;1.20;;
54247;SDS011;40161;39.768;2.722;2022-11-15T11:21:51;3.90;;;1.20;;
54247;SDS011;40161;39.768;2.722;2022-11-15T11:24:33;2.78;;;0.80;;
54247;SDS011;40161;39.768;2.722;2022-11-15T11:32:50;1.67;;;0.80;;
54247;SDS011;40161;39.768;2.722;2022-11-15T11:38:19;2.53;;;0.95;;
54247;SDS011;40161;39.768;2.722;2022-11-15T11:49:06;2.67;;;1.00;;
54247;SDS011;40161;39.768;2.722;2022-11-15T11:51:42;2.95;;;1.15;;
54247;SDS011;40161;39.768;2.722;2022-11-15T11:54:24;9.77;;;4.18;;
54247;SDS011;40161;39.768;2.722;2022-11-15T11:56:56;4.72;;;1.50;;
54247;SDS011;40161;39.768;2.722;2022-11-15T12:02:24;2.85;;;1.20;;
54247;SDS011;40161;39.768;2.722;2022-11-15T12:05:07;5.13;;;1.20;;
54247;SDS011;40161;39.768;2.722;2022-11-15T12:07:39;4.20;;;1.40;;
54247;SDS011;40161;39.768;2.722;2022-11-15T12:15:37;29.67;;;13.20;;
54247;SDS011;40161;39.768;2.722;2022-11-15T12:18:08;28.40;;;12.32;;
54247;SDS011;40161;39.768;2.722;2022-11-15T12:20:39;10.52;;;3.50;;
54247;SDS011;40161;39.768;2.722;2022-11-15T12:23:17;34.22;;;13.48;;
54247;SDS011;40161;39.768;2.722;2022-11-15T12:26:04;5.55;;;1.48;;
54247;SDS011;40161;39.768;2.722;2022-11-15T12:34:00;4.90;;;2.35;;
54247;SDS011;40161;39.768;2.722;2022-11-15T12:36:38;6.13;;;3.08;;
54247;SDS011;40161;39.768;2.722;2022-11-15T12:39:08;7.53;;;3.08;;
54247;SDS011;40161;39.768;2.722;2022-11-15T12:41:36;6.20;;;1.95;;
54247;SDS011;40161;39.768;2.722;2022-11-15T13:02:22;4.32;;;1.50;;
54247;SDS011;40161;39.768;2.722;2022-11-15T13:04:49;4.32;;;1.80;;
54247;SDS011;40161;39.768;2.722;2022-11-15T13:12:59;3.53;;;1.50;;
54247;SDS011;40161;39.768;2.722;2022-11-15T13:18:30;3.70;;;1.60;;
54247;SDS011;40161;39.768;2.722;2022-11-15T13:20:58;7.05;;;1.98;;
54247;SDS011;40161;39.768;2.722;2022-11-15T13:23:24;4.53;;;1.55;;
54247;SDS011;40161;39.768;2.722;2022-11-15T13:33:50;6.10;;;2.15;;
54247;SDS011;40161;39.768;2.722;2022-11-15T13:36:50;6.00;;;3.20;;
54247;SDS011;40161;39.768;2.722;2022-11-15T13:39:14;23.55;;;16.75;;
54247;SDS011;40161;39.768;2.722;2022-11-15T13:41:51;16.25;;;11.35;;
54247;SDS011;40161;39.768;2.722;2022-11-15T13:44:19;24.42;;;16.70;;
54247;SDS011;40161;39.768;2.722;2022-11-15T13:46:47;9.18;;;3.50;;
54247;SDS011;40161;39.768;2.722;2022-11-15T13:49:12;8.05;;;4.55;;
54247;SDS011;40161;39.768;2.722;2022-11-15T13:54:14;8.70;;;4.00;;
54247;SDS011;40161;39.768;2.722;2022-11-15T14:00:03;3.60;;;2.03;;
54247;SDS011;40161;39.768;2.722;2022-11-15T14:02:32;5.07;;;1.92;;
54247;SDS011;40161;39.768;2.722;2022-11-15T14:05:00;3.95;;;1.52;;
54247;SDS011;40161;39.768;2.722;2022-11-15T14:07:44;6.03;;;1.50;;
54247;SDS011;40161;39.768;2.722;2022-11-15T14:10:29;3.67;;;1.40;;
54247;SDS011;40161;39.768;2.722;2022-11-15T14:12:59;3.63;;;1.40;;
54247;SDS011;40161;39.768;2.722;2022-11-15T14:17:54;3.72;;;1.30;;
54247;SDS011;40161;39.768;2.722;2022-11-15T14:20:40;4.35;;;1.27;;
54247;SDS011;40161;39.768;2.722;2022-11-15T14:23:18;2.60;;;1.27;;
54247;SDS011;40161;39.768;2.722;2022-11-15T14:25:52;3.47;;;1.30;;
54247;SDS011;40161;39.768;2.722;2022-11-15T14:30:49;2.88;;;1.10;;
54247;SDS011;40161;39.768;2.722;2022-11-15T14:33:25;4.95;;;1.27;;
54247;SDS011;40161;39.768;2.722;2022-11-15T14:35:57;4.85;;;1.65;;
54247;SDS011;40161;39.768;2.722;2022-11-15T14:38:29;3.35;;;0.93;;
54247;SDS011;40161;39.768;2.722;2022-11-15T14:40:55;2.92;;;1.25;;
54247;SDS011;40161;39.768;2.722;2022-11-15T14:43:22;4.03;;;1.10;;
54247;SDS011;40161;39.768;2.722;2022-11-15T14:45:47;2.85;;;1.15;;
54247;SDS011;40161;39.768;2.722;2022-11-15T14:48:13;3.70;;;1.35;;
54247;SDS011;40161;39.768;2.722;2022-11-15T14:50:38;2.38;;;1.00;;
54247;SDS011;40161;39.768;2.722;2022-11-15T14:53:04;2.75;;;0.98;;
54247;SDS011;40161;39.768;2.722;2022-11-15T14:55:31;1.77;;;0.90;;
54247;SDS011;40161;39.768;2.722;2022-11-15T14:58:00;3.53;;;1.38;;
54247;SDS011;40161;39.768;2.722;2022-11-15T15:00:28;2.97;;;1.20;;
54247;SDS011;40161;39.768;2.722;2022-11-15T15:02:57;2.95;;;1.00;;
54247;SDS011;40161;39.768;2.722;2022-11-15T15:07:59;1.85;;;0.80;;
54247;SDS011;40161;39.768;2.722;2022-11-15T15:10:25;2.08;;;0.90;;
54247;SDS011;40161;39.768;2.722;2022-11-15T15:12:55;1.35;;;0.77;;
54247;SDS011;40161;39.768;2.722;2022-11-15T15:15:26;3.47;;;1.00;;
54247;SDS011;40161;39.768;2.722;2022-11-15T15:17:56;1.73;;;1.00;;
54247;SDS011;40161;39.768;2.722;2022-11-15T15:20:21;2.97;;;0.93;;
54247;SDS011;40161;39.768;2.722;2022-11-15T15:22:47;1.17;;;0.80;;
54247;SDS011;40161;39.768;2.722;2022-11-15T15:25:29;1.65;;;0.88;;
54247;SDS011;40161;39.768;2.722;2022-11-15T15:27:57;2.28;;;0.90;;
54247;SDS011;40161;39.768;2.722;2022-11-15T15:30:24;2.28;;;0.90;;
54247;SDS011;40161;39.768;2.722;2022-11-15T15:32:50;3.28;;;0.80;;
54247;SDS011;40161;39.768;2.722;2022-11-15T15:35:16;4.25;;;1.10;;
54247;SDS011;40161;39.768;2.722;2022-11-15T15:37:43;2.83;;;1.00;;
54247;SDS011;40161;39.768;2.722;2022-11-15T15:40:13;3.95;;;1.00;;
54247;SDS011;40161;39.768;2.722;2022-11-15T15:42:39;3.13;;;0.85;;
54247;SDS011;40161;39.768;2.722;2022-11-15T15:45:04;4.10;;;1.02;;
54247;SDS011;40161;39.768;2.722;2022-11-15T15:47:30;1.67;;;0.80;;
54247;SDS011;40161;39.768;2.722;2022-11-15T15:49:56;1.88;;;0.90;;
54247;SDS011;40161;39.768;2.722;2022-11-15T15:52:21;2.80;;;1.10;;
54247;SDS011;40161;39.768;2.722;2022-11-15T15:54:47;1.75;;;0.80;;
54247;SDS011;40161;39.768;2.722;2022-11-15T15:57:12;2.85;;;1.40;;
54247;SDS011;40161;39.768;2.722;2022-11-15T15:59:39;2.05;;;0.90;;
54247;SDS011;40161;39.768;2.722;2022-11-15T16:02:04;1.77;;;0.80;;
54247;SDS011;40161;39.768;2.722;2022-11-15T16:04:30;2.83;;;1.25;;
54247;SDS011;40161;39.768;2.722;2022-11-15T16:06:59;2.25;;;1.30;;
54247;SDS011;40161;39.768;2.722;2022-11-15T16:09:25;3.35;;;1.23;;
54247;SDS011;40161;39.768;2.722;2022-11-15T16:12:10;2.90;;;1.52;;
54247;SDS011;40161;39.768;2.722;2022-11-15T16:14:36;2.45;;;1.20;;
54247;SDS011;40161;39.768;2.722;2022-11-15T16:17:02;3.95;;;1.85;;
54247;SDS011;40161;39.768;2.722;2022-11-15T16:19:28;3.00;;;1.13;;
54247;SDS011;40161;39.768;2.722;2022-11-15T16:21:53;2.88;;;1.02;;
54247;SDS011;40161;39.768;2.722;2022-11-15T16:24:19;2.45;;;0.90;;
54247;SDS011;40161;39.768;2.722;2022-11-15T16:26:45;3.17;;;1.10;;
54247;SDS011;40161;39.768;2.722;2022-11-15T16:29:12;6.07;;;1.90;;
54247;SDS011;40161;39.768;2.722;2022-11-15T16:31:38;2.33;;;1.05;;
54247;SDS011;40161;39.768;2.722;2022-11-15T16:34:03;4.35;;;1.00;;
54247;SDS011;40161;39.768;2.722;2022-11-15T16:36:30;4.32;;;1.23;;
54247;SDS011;40161;39.768;2.722;2022-11-15T16:38:58;3.90;;;1.40;;
54247;SDS011;40161;39.768;2.722;2022-11-15T16:41:24;3.63;;;1.45;;
54247;SDS011;40161;39.768;2.722;2022-11-15T16:43:50;4.75;;;1.98;;
54247;SDS011;40161;39.768;2.722;2022-11-15T16:46:18;2.95;;;1.25;;
54247;SDS011;40161;39.768;2.722;2022-11-15T16:48:45;2.30;;;0.90;;
54247;SDS011;40161;39.768;2.722;2022-11-15T16:51:11;2.05;;;0.95;;
54247;SDS011;40161;39.768;2.722;2022-11-15T16:53:37;3.45;;;1.00;;
54247;SDS011;40161;39.768;2.722;2022-11-15T16:56:03;5.03;;;2.20;;
54247;SDS011;40161;39.768;2.722;2022-11-15T16:58:37;5.72;;;2.28;;
54247;SDS011;40161;39.768;2.722;2022-11-15T17:01:03;7.22;;;3.90;;
54247;SDS011;40161;39.768;2.722;2022-11-15T17:03:29;2.47;;;1.10;;
54247;SDS011;40161;39.768;2.722;2022-11-15T17:05:57;2.17;;;1.10;;
54247;SDS011;40161;39.768;2.722;2022-11-15T17:08:23;3.45;;;1.15;;
54247;SDS011;40161;39.768;2.722;2022-11-15T17:10:49;2.72;;;0.93;;
54247;SDS011;40161;39.768;2.722;2022-11-15T17:13:15;2.42;;;1.05;;
54247;SDS011;40161;39.768;2.722;2022-11-15T17:15:40;1.98;;;1.10;;
54247;SDS011;40161;39.768;2.722;2022-11-15T17:18:09;1.92;;;1.05;;
54247;SDS011;40161;39.768;2.722;2022-11-15T17:20:36;6.53;;;3.30;;
54247;SDS011;40161;39.768;2.722;2022-11-15T17:23:01;5.20;;;1.70;;
54247;SDS011;40161;39.768;2.722;2022-11-15T17:25:27;4.03;;;1.65;;
54247;SDS011;40161;39.768;2.722;2022-11-15T17:27:52;2.35;;;0.93;;
54247;SDS011;40161;39.768;2.722;2022-11-15T17:30:20;3.05;;;0.98;;
54247;SDS011;40161;39.768;2.722;2022-11-15T17:32:45;3.55;;;1.30;;
54247;SDS011;40161;39.768;2.722;2022-11-15T17:35:12;3.58;;;1.35;;
54247;SDS011;40161;39.768;2.722;2022-11-15T17:37:37;4.13;;;1.25;;
54247;SDS011;40161;39.768;2.722;2022-11-15T17:40:03;4.03;;;1.25;;
54247;SDS011;40161;39.768;2.722;2022-11-15T17:42:29;3.00;;;1.10;;
54247;SDS011;40161;39.768;2.722;2022-11-15T17:44:54;2.45;;;0.93;;
54247;SDS011;40161;39.768;2.722;2022-11-15T17:47:20;2.47;;;1.17;;
54247;SDS011;40161;39.768;2.722;2022-11-15T17:49:45;4.25;;;1.58;;
54247;SDS011;40161;39.768;2.722;2022-11-15T17:52:11;2.80;;;1.00;;
54247;SDS011;40161;39.768;2.722;2022-11-15T17:54:36;2.50;;;0.90;;
54247;SDS011;40161;39.768;2.722;2022-11-15T17:57:02;3.90;;;1.30;;
54247;SDS011;40161;39.768;2.722;2022-11-15T17:59:27;3.13;;;1.35;;
54247;SDS011;40161;39.768;2.722;2022-11-15T18:01:53;4.65;;;1.20;;
54247;SDS011;40161;39.768;2.722;2022-11-15T18:04:19;3.63;;;1.20;;
54247;SDS011;40161;39.768;2.722;2022-11-15T18:06:44;3.80;;;1.23;;
54247;SDS011;40161;39.768;2.722;2022-11-15T18:09:10;3.38;;;1.13;;
54247;SDS011;40161;39.768;2.722;2022-11-15T18:11:40;3.25;;;1.00;;
54247;SDS011;40161;39.768;2.722;2022-11-15T18:14:07;3.47;;;1.30;;
54247;SDS011;40161;39.768;2.722;2022-11-15T18:16:36;3.20;;;0.98;;
54247;SDS011;40161;39.768;2.722;2022-11-15T18:19:02;2.65;;;1.00;;
54247;SDS011;40161;39.768;2.722;2022-11-15T18:21:38;2.78;;;0.93;;
54247;SDS011;40161;39.768;2.722;2022-11-15T18:24:32;3.13;;;0.90;;
54247;SDS011;40161;39.768;2.722;2022-11-15T18:27:03;1.42;;;0.90;;
54247;SDS011;40161;39.768;2.722;2022-11-15T18:29:30;2.70;;;1.00;;
54247;SDS011;40161;39.768;2.722;2022-11-15T18:31:58;1.63;;;0.90;;
54247;SDS011;40161;39.768;2.722;2022-11-15T18:34:24;3.00;;;1.10;;
54247;SDS011;40161;39.768;2.722;2022-11-15T18:36:55;1.92;;;0.98;;
54247;SDS011;40161;39.768;2.722;2022-11-15T18:39:21;2.22;;;0.93;;
54247;SDS011;40161;39.768;2.722;2022-11-15T18:41:47;3.95;;;1.10;;
54247;SDS011;40161;39.768;2.722;2022-11-15T18:44:13;3.13;;;1.02;;
54247;SDS011;40161;39.768;2.722;2022-11-15T18:46:39;1.77;;;0.90;;
54247;SDS011;40161;39.768;2.722;2022-11-15T18:49:05;3.20;;;1.08;;
54247;SDS011;40161;39.768;2.722;2022-11-15T18:51:33;2.58;;;1.27;;
54247;SDS011;40161;39.768;2.722;2022-11-15T18:54:02;3.25;;;1.27;;
54247;SDS011;40161;39.768;2.722;2022-11-15T18:56:29;3.05;;;1.25;;
54247;SDS011;40161;39.768;2.722;2022-11-15T18:58:56;2.28;;;1.10;;
54247;SDS011;40161;39.768;2.722;2022-11-15T19:01:24;3.60;;;1.02;;
54247;SDS011;40161;39.768;2.722;2022-11-15T19:03:52;5.93;;;1.75;;
54247;SDS011;40161;39.768;2.722;2022-11-15T19:06:20;4.63;;;1.70;;
54247;SDS011;40161;39.768;2.722;2022-11-15T19:08:47;5.55;;;1.60;;
54247;SDS011;40161;39.768;2.722;2022-11-15T19:11:16;3.75;;;1.50;;
54247;SDS011;40161;39.768;2.722;2022-11-15T19:13:43;2.97;;;1.25;;
54247;SDS011;40161;39.768;2.722;2022-11-15T19:16:13;6.43;;;3.38;;
54247;SDS011;40161;39.768;2.722;2022-11-15T19:18:40;2.05;;;1.00;;
54247;SDS011;40161;39.768;2.722;2022-11-15T19:21:07;4.43;;;1.10;;
54247;SDS011;40161;39.768;2.722;2022-11-15T19:23:35;2.33;;;1.30;;
54247;SDS011;40161;39.768;2.722;2022-11-15T19:26:02;1.73;;;1.00;;
54247;SDS011;40161;39.768;2.722;2022-11-15T19:28:29;2.65;;;1.70;;
54247;SDS011;40161;39.768;2.722;2022-11-15T19:31:05;2.10;;;1.20;;
54247;SDS011;40161;39.768;2.722;2022-11-15T19:33:39;1.77;;;1.17;;
54247;SDS011;40161;39.768;2.722;2022-11-15T19:36:10;2.53;;;1.13;;
54247;SDS011;40161;39.768;2.722;2022-11-15T19:38:38;3.15;;;1.00;;
54247;SDS011;40161;39.768;2.722;2022-11-15T19:41:05;1.90;;;0.90;;
54247;SDS011;40161;39.768;2.722;2022-11-15T19:43:32;1.63;;;0.80;;
54247;SDS011;40161;39.768;2.722;2022-11-15T19:45:59;3.53;;;1.15;;
54247;SDS011;40161;39.768;2.722;2022-11-15T19:48:25;2.55;;;1.10;;
54247;SDS011;40161;39.768;2.722;2022-11-15T19:50:52;2.60;;;1.38;;
54247;SDS011;40161;39.768;2.722;2022-11-15T19:53:18;2.35;;;1.00;;
54247;SDS011;40161;39.768;2.722;2022-11-15T19:55:54;2.15;;;0.85;;
54247;SDS011;40161;39.768;2.722;2022-11-15T19:58:20;2.80;;;1.00;;
54247;SDS011;40161;39.768;2.722;2022-11-15T20:00:46;2.72;;;1.00;;
54247;SDS011;40161;39.768;2.722;2022-11-15T20:03:12;2.90;;;1.20;;
54247;SDS011;40161;39.768;2.722;2022-11-15T20:05:37;1.48;;;0.90;;
54247;SDS011;40161;39.768;2.722;2022-11-15T20:08:03;1.95;;;0.90;;
54247;SDS011;40161;39.768;2.722;2022-11-15T20:10:28;2.15;;;0.90;;
54247;SDS011;40161;39.768;2.722;2022-11-15T20:12:54;1.40;;;0.70;;
54247;SDS011;40161;39.768;2.722;2022-11-15T20:15:19;2.03;;;0.90;;
54247;SDS011;40161;39.768;2.722;2022-11-15T20:17:44;3.80;;;1.50;;
54247;SDS011;40161;39.768;2.722;2022-11-15T20:20:10;1.90;;;0.98;;
54247;SDS011;40161;39.768;2.722;2022-11-15T20:22:36;3.13;;;1.20;;
54247;SDS011;40161;39.768;2.722;2022-11-15T20:25:01;3.03;;;1.10;;
54247;SDS011;40161;39.768;2.722;2022-11-15T20:27:27;2.30;;;1.00;;
54247;SDS011;40161;39.768;2.722;2022-11-15T20:29:53;3.17;;;1.10;;
54247;SDS011;40161;39.768;2.722;2022-11-15T20:32:18;2.55;;;0.60;;
54247;SDS011;40161;39.768;2.722;2022-11-15T20:34:44;1.90;;;0.80;;
54247;SDS011;40161;39.768;2.722;2022-11-15T20:37:10;1.85;;;0.65;;
54247;SDS011;40161;39.768;2.722;2022-11-15T20:39:36;3.03;;;1.10;;
54247;SDS011;40161;39.768;2.722;2022-11-15T20:42:03;1.92;;;0.90;;
54247;SDS011;40161;39.768;2.722;2022-11-15T20:44:29;2.08;;;1.00;;
54247;SDS011;40161;39.768;2.722;2022-11-15T20:46:54;1.70;;;0.80;;
54247;SDS011;40161;39.768;2.722;2022-11-15T20:49:20;1.50;;;0.73;;
54247;SDS011;40161;39.768;2.722;2022-11-15T20:51:45;2.42;;;0.70;;
54247;SDS011;40161;39.768;2.722;2022-11-15T20:54:11;2.30;;;1.05;;
54247;SDS011;40161;39.768;2.722;2022-11-15T20:56:36;1.95;;;0.88;;
54247;SDS011;40161;39.768;2.722;2022-11-15T20:59:02;1.85;;;0.68;;
54247;SDS011;40161;39.768;2.722;2022-11-15T21:01:28;1.92;;;0.85;;
54247;SDS011;40161;39.768;2.722;2022-11-15T21:03:54;1.52;;;0.70;;
54247;SDS011;40161;39.768;2.722;2022-11-15T21:06:20;1.90;;;1.00;;
54247;SDS011;40161;39.768;2.722;2022-11-15T21:08:48;1.15;;;0.60;;
54247;SDS011;40161;39.768;2.722;2022-11-15T21:11:32;0.90;;;0.70;;
54247;SDS011;40161;39.768;2.722;2022-11-15T21:14:17;1.33;;;0.70;;
54247;SDS011;40161;39.768;2.722;2022-11-15T21:16:42;0.88;;;0.60;;
54247;SDS011;40161;39.768;2.722;2022-11-15T21:19:08;2.00;;;0.82;;
54247;SDS011;40161;39.768;2.722;2022-11-15T21:21:34;1.67;;;0.80;;
54247;SDS011;40161;39.768;2.722;2022-11-15T21:24:04;1.38;;;0.63;;
54247;SDS011;40161;39.768;2.722;2022-11-15T21:26:32;1.55;;;0.80;;
54247;SDS011;40161;39.768;2.722;2022-11-15T21:28:58;3.20;;;1.00;;
54247;SDS011;40161;39.768;2.722;2022-11-15T21:31:23;1.10;;;0.73;;
54247;SDS011;40161;39.768;2.722;2022-11-15T21:33:49;0.85;;;0.50;;
54247;SDS011;40161;39.768;2.722;2022-11-15T21:36:15;1.20;;;0.65;;
54247;SDS011;40161;39.768;2.722;2022-11-15T21:38:40;1.10;;;0.70;;
54247;SDS011;40161;39.768;2.722;2022-11-15T21:41:06;1.00;;;0.60;;
54247;SDS011;40161;39.768;2.722;2022-11-15T21:43:31;2.80;;;0.70;;
54247;SDS011;40161;39.768;2.722;2022-11-15T21:45:58;1.63;;;0.80;;
54247;SDS011;40161;39.768;2.722;2022-11-15T21:48:25;1.58;;;0.65;;
54247;SDS011;40161;39.768;2.722;2022-11-15T21:50:55;1.85;;;0.60;;
54247;SDS011;40161;39.768;2.722;2022-11-15T21:53:29;2.15;;;0.75;;
54247;SDS011;40161;39.768;2.722;2022-11-15T21:55:55;1.52;;;0.77;;
54247;SDS011;40161;39.768;2.722;2022-11-15T21:58:22;2.63;;;0.70;;
54247;SDS011;40161;39.768;2.722;2022-11-15T22:00:48;1.08;;;0.60;;
54247;SDS011;40161;39.768;2.722;2022-11-15T22:03:33;1.75;;;0.70;;
54247;SDS011;40161;39.768;2.722;2022-11-15T22:05:59;1.35;;;0.70;;
54247;SDS011;40161;39.768;2.722;2022-11-15T22:08:24;1.35;;;0.70;;
54247;SDS011;40161;39.768;2.722;2022-11-15T22:10:50;2.50;;;0.80;;
54247;SDS011;40161;39.768;2.722;2022-11-15T22:13:20;3.67;;;1.05;;
54247;SDS011;40161;39.768;2.722;2022-11-15T22:15:47;2.55;;;0.70;;
54247;SDS011;40161;39.768;2.722;2022-11-15T22:18:13;1.40;;;0.70;;
54247;SDS011;40161;39.768;2.722;2022-11-15T22:20:39;3.65;;;0.68;;
54247;SDS011;40161;39.768;2.722;2022-11-15T22:23:04;3.10;;;0.80;;
54247;SDS011;40161;39.768;2.722;2022-11-15T22:25:30;2.67;;;0.90;;
54247;SDS011;40161;39.768;2.722;2022-11-15T22:27:56;5.40;;;0.90;;
54247;SDS011;40161;39.768;2.722;2022-11-15T22:30:22;2.90;;;0.75;;
54247;SDS011;40161;39.768;2.722;2022-11-15T22:32:48;2.03;;;0.70;;
54247;SDS011;40161;39.768;2.722;2022-11-15T22:35:14;2.20;;;0.60;;
54247;SDS011;40161;39.768;2.722;2022-11-15T22:37:40;4.28;;;0.73;;
54247;SDS011;40161;39.768;2.722;2022-11-15T22:40:06;3.50;;;0.63;;
54247;SDS011;40161;39.768;2.722;2022-11-15T22:42:32;2.75;;;1.02;;
54247;SDS011;40161;39.768;2.722;2022-11-15T22:44:58;3.47;;;0.98;;
54247;SDS011;40161;39.768;2.722;2022-11-15T22:47:24;2.63;;;0.80;;
54247;SDS011;40161;39.768;2.722;2022-11-15T22:49:50;3.40;;;0.90;;
54247;SDS011;40161;39.768;2.722;2022-11-15T22:52:16;2.83;;;0.90;;
54247;SDS011;40161;39.768;2.722;2022-11-15T22:54:42;2.55;;;0.70;;
54247;SDS011;40161;39.768;2.722;2022-11-15T22:57:07;3.50;;;0.70;;
54247;SDS011;40161;39.768;2.722;2022-11-15T22:59:33;3.33;;;0.90;;
54247;SDS011;40161;39.768;2.722;2022-11-15T23:02:01;3.72;;;0.80;;
54247;SDS011;40161;39.768;2.722;2022-11-15T23:04:27;3.15;;;1.05;;
54247;SDS011;40161;39.768;2.722;2022-11-15T23:06:54;4.05;;;0.90;;
54247;SDS011;40161;39.768;2.722;2022-11-15T23:09:20;5.18;;;1.10;;
54247;SDS011;40161;39.768;2.722;2022-11-15T23:11:46;3.45;;;0.93;;
54247;SDS011;40161;39.768;2.722;2022-11-15T23:14:29;3.13;;;1.00;;
54247;SDS011;40161;39.768;2.722;2022-11-15T23:16:55;2.83;;;0.80;;
54247;SDS011;40161;39.768;2.722;2022-11-15T23:19:20;4.68;;;1.10;;
54247;SDS011;40161;39.768;2.722;2022-11-15T23:21:46;3.95;;;1.10;;
54247;SDS011;40161;39.768;2.722;2022-11-15T23:24:30;4.03;;;0.85;;
54247;SDS011;40161;39.768;2.722;2022-11-15T23:27:01;5.03;;;1.00;;
54247;SDS011;40161;39.768;2.722;2022-11-15T23:29:28;4.03;;;0.98;;
54247;SDS011;40161;39.768;2.722;2022-11-15T23:31:54;3.95;;;0.95;;
54247;SDS011;40161;39.768;2.722;2022-11-15T23:34:40;6.80;;;1.23;;
54247;SDS011;40161;39.768;2.722;2022-11-15T23:37:08;4.35;;;0.90;;
54247;SDS011;40161;39.768;2.722;2022-11-15T23:39:35;3.90;;;0.90;;
54247;SDS011;40161;39.768;2.722;2022-11-15T23:42:01;3.10;;;0.95;;
54247;SDS011;40161;39.768;2.722;2022-11-15T23:44:27;3.40;;;1.00;;
54247;SDS011;40161;39.768;2.722;2022-11-15T23:46:52;5.57;;;1.20;;
54247;SDS011;40161;39.768;2.722;2022-11-15T23:49:18;3.88;;;1.00;;
54247;SDS011;40161;39.768;2.722;2022-11-15T23:51:44;2.78;;;0.90;;
54247;SDS011;40161;39.768;2.722;2022-11-15T23:54:10;3.75;;;0.98;;
54247;SDS011;40161;39.768;2.722;2022-11-15T23:56:36;3.42;;;0.70;;